Time;durP1;ratioP1;P1;durP2;ratioP2;P2;SDS_P1;SDS_P2;PMS_P1;PMS_P2;Temp;Humidity;BMP_temperature;BMP_pressure;BME280_temperature;BME280_humidity;BME280_pressure;Samples;Min_cycle;Max_cycle;Signal;HPM_P1;HPM_P2
2022/06/04 00:01:44;;;;;;;2.27;1.53;;;16.30;99.90;;;;;;5072719;28;20230;-55
2022/06/04 00:04:15;;;;;;;1.80;1.70;;;16.30;99.90;;;;;;5072657;28;20541;-56
2022/06/04 00:06:44;;;;;;;2.07;1.47;;;16.30;99.90;;;;;;5076424;28;20305;-55
2022/06/04 00:09:13;;;;;;;2.27;1.30;;;16.20;99.90;;;;;;5070476;28;20597;-56
2022/06/04 00:17:15;;;;;;;2.23;1.47;;;16.10;99.90;;;;;;5069577;28;20276;-56
2022/06/04 00:19:42;;;;;;;4.23;1.83;;;16.00;99.90;;;;;;5066118;28;20215;-55
2022/06/04 00:22:09;;;;;;;1.90;1.60;;;16.10;99.90;;;;;;5068685;28;20280;-56
2022/06/04 00:24:36;;;;;;;3.43;1.53;;;16.00;99.90;;;;;;5073510;28;21188;-56
2022/06/04 00:27:03;;;;;;;2.77;1.60;;;15.90;99.90;;;;;;5068666;28;20244;-55
2022/06/04 00:29:31;;;;;;;2.03;1.63;;;15.80;99.90;;;;;;5072435;28;20936;-56
2022/06/04 00:31:58;;;;;;;1.83;1.33;;;15.90;99.90;;;;;;5068676;28;20191;-55
2022/06/04 00:34:25;;;;;;;2.50;1.63;;;15.80;99.90;;;;;;5067917;28;20207;-55
2022/06/04 00:36:52;;;;;;;1.93;1.70;;;15.90;99.90;;;;;;5072000;28;20461;-56
2022/06/04 00:39:19;;;;;;;2.60;1.37;;;15.90;99.90;;;;;;5068727;28;20290;-56
2022/06/04 00:41:58;;;;;;;2.47;1.73;;;15.80;99.90;;;;;;5064555;28;20358;-56
2022/06/04 00:44:31;;;;;;;4.57;1.40;;;16.00;99.90;;;;;;5067993;28;20235;-56
2022/06/04 00:47:13;;;;;;;2.53;1.60;;;15.80;99.90;;;;;;5073699;28;20216;-56
2022/06/04 00:49:39;;;;;;;3.00;1.53;;;15.70;99.90;;;;;;5072394;28;20293;-56
2022/06/04 00:52:12;;;;;;;2.47;1.87;;;15.80;99.90;;;;;;5075686;28;20739;-56
2022/06/04 00:54:40;;;;;;;2.23;1.90;;;15.60;99.90;;;;;;5071437;28;20233;-56
2022/06/04 00:57:28;;;;;;;2.53;2.03;;;15.50;99.90;;;;;;5075065;28;20326;-55
2022/06/04 01:00:10;;;;;;;2.80;2.20;;;15.50;99.90;;;;;;5072668;28;20264;-56
2022/06/04 01:03:03;;;;;;;2.20;2.00;;;15.50;99.90;;;;;;5071125;28;20260;-56
2022/06/04 01:05:57;;;;;;;3.97;2.17;;;15.40;99.90;;;;;;5068056;28;20265;-55
2022/06/04 01:08:33;;;;;;;2.57;2.13;;;15.20;99.90;;;;;;5070087;28;20690;-55
2022/06/04 01:11:18;;;;;;;3.47;2.13;;;15.20;99.90;;;;;;5069980;28;20202;-56
2022/06/04 01:14:04;;;;;;;2.47;1.80;;;15.30;99.90;;;;;;5067335;28;20215;-55
2022/06/04 01:17:13;;;;;;;2.43;1.87;;;15.30;99.90;;;;;;5070354;28;20217;-55
2022/06/04 01:20:06;;;;;;;3.97;2.00;;;15.30;99.90;;;;;;5067343;28;20280;-56
2022/06/04 01:22:57;;;;;;;4.43;2.10;;;15.30;99.90;;;;;;5072813;28;20248;-56
2022/06/04 01:25:24;;;;;;;1.93;1.63;;;15.30;99.90;;;;;;5063706;28;20243;-56
2022/06/04 01:28:02;;;;;;;2.93;1.93;;;15.30;99.90;;;;;;5066072;28;20202;-55
2022/06/04 01:30:39;;;;;;;2.60;2.20;;;15.30;99.90;;;;;;5076041;28;20278;-56
2022/06/04 01:33:11;;;;;;;4.47;1.97;;;15.10;99.90;;;;;;5068218;28;20244;-55
2022/06/04 01:35:47;;;;;;;3.87;2.07;;;15.20;99.90;;;;;;5072489;28;20682;-55
2022/06/04 01:38:24;;;;;;;2.17;1.97;;;15.10;99.90;;;;;;5065427;28;20356;-55
2022/06/04 01:41:04;;;;;;;2.53;1.87;;;14.90;99.90;;;;;;5066539;28;20203;-55
2022/06/04 01:43:33;;;;;;;4.03;1.80;;;14.90;99.90;;;;;;5070642;28;20202;-55
2022/06/04 01:46:07;;;;;;;3.40;1.70;;;15.00;99.90;;;;;;5069927;28;20336;-56
2022/06/04 01:48:40;;;;;;;2.37;1.90;;;14.90;99.90;;;;;;5066153;28;20282;-56
2022/06/04 01:51:09;;;;;;;2.47;1.90;;;14.90;99.90;;;;;;5073991;28;20250;-57
2022/06/04 01:53:40;;;;;;;2.93;1.87;;;14.90;99.90;;;;;;5069285;28;20698;-57
2022/06/04 01:56:19;;;;;;;3.73;2.50;;;14.90;99.90;;;;;;5066572;28;20255;-55
2022/06/04 01:59:01;;;;;;;2.70;2.20;;;14.80;99.90;;;;;;5076061;28;20201;-55
2022/06/04 02:01:32;;;;;;;4.37;2.07;;;14.80;99.90;;;;;;5069513;28;20247;-55
2022/06/04 02:04:10;;;;;;;3.43;2.27;;;14.90;99.90;;;;;;5073116;28;20289;-55
2022/06/04 02:06:43;;;;;;;2.17;1.70;;;14.90;99.90;;;;;;5070729;28;20273;-55
2022/06/04 02:09:15;;;;;;;2.20;1.97;;;14.90;99.90;;;;;;5070874;28;20209;-56
2022/06/04 02:11:50;;;;;;;4.40;1.77;;;15.00;99.90;;;;;;5067143;28;20203;-55
2022/06/04 02:14:16;;;;;;;3.17;1.97;;;15.10;99.90;;;;;;5069245;28;20351;-55
2022/06/04 02:16:51;;;;;;;3.87;1.67;;;14.90;99.90;;;;;;5066461;28;20228;-56
2022/06/04 02:19:18;;;;;;;2.17;1.73;;;14.80;99.90;;;;;;5071137;28;20586;-55
2022/06/04 02:21:45;;;;;;;3.67;2.10;;;14.70;99.90;;;;;;5072063;28;20253;-55
2022/06/04 02:24:12;;;;;;;3.13;2.07;;;14.80;99.90;;;;;;5072527;28;20199;-55
2022/06/04 02:26:43;;;;;;;3.80;2.57;;;14.80;99.90;;;;;;5067848;28;20262;-55
2022/06/04 02:29:12;;;;;;;2.77;2.00;;;14.90;99.90;;;;;;5069517;28;20256;-57
2022/06/04 02:31:54;;;;;;;3.60;2.00;;;14.80;99.90;;;;;;5072242;28;20673;-55
2022/06/04 02:34:51;;;;;;;4.73;2.70;;;14.60;99.90;;;;;;5068585;28;20196;-55
2022/06/04 02:37:31;;;;;;;3.17;2.20;;;14.60;99.90;;;;;;5069605;28;20212;-56
2022/06/04 02:40:16;;;;;;;5.17;2.10;;;14.60;99.90;;;;;;5071784;28;20301;-56
2022/06/04 02:43:04;;;;;;;3.27;2.30;;;14.70;99.90;;;;;;5071196;28;20290;-55
2022/06/04 02:45:36;;;;;;;3.87;2.07;;;14.70;99.90;;;;;;5071601;28;20215;-55
2022/06/04 02:48:13;;;;;;;3.90;1.97;;;14.80;99.90;;;;;;5067815;28;20202;-55
2022/06/04 02:51:07;;;;;;;4.23;2.17;;;14.90;99.90;;;;;;5072327;28;20197;-56
2022/06/04 02:53:35;;;;;;;3.47;2.20;;;14.80;99.90;;;;;;5060966;28;20301;-55
2022/06/04 02:56:10;;;;;;;3.63;2.03;;;14.50;99.90;;;;;;5078334;28;20259;-56
2022/06/04 02:58:38;;;;;;;2.40;2.20;;;14.50;99.90;;;;;;5075185;28;20201;-55
2022/06/04 03:01:09;;;;;;;2.27;2.07;;;14.30;99.90;;;;;;5077264;28;20239;-55
2022/06/04 03:03:37;;;;;;;2.53;2.20;;;14.30;99.90;;;;;;5077540;28;20206;-55
2022/06/04 03:06:07;;;;;;;5.17;2.40;;;14.40;99.90;;;;;;5076192;28;20238;-57
2022/06/04 03:08:40;;;;;;;3.20;2.20;;;14.30;99.90;;;;;;5074587;28;20193;-57
2022/06/04 03:11:07;;;;;;;3.50;2.60;;;14.30;99.90;;;;;;5073653;28;20204;-56
2022/06/04 03:13:34;;;;;;;3.73;2.43;;;14.30;99.90;;;;;;5072833;28;20240;-56
2022/06/04 03:16:01;;;;;;;5.17;2.10;;;14.40;99.90;;;;;;5076217;28;20646;-56
2022/06/04 03:18:28;;;;;;;9.17;2.90;;;14.30;99.90;;;;;;5077062;28;20201;-56
2022/06/04 03:20:55;;;;;;;4.13;2.50;;;14.30;99.90;;;;;;5068536;28;20256;-56
2022/06/04 03:23:22;;;;;;;2.73;2.30;;;14.30;99.90;;;;;;5074442;28;20318;-56
2022/06/04 03:25:48;;;;;;;5.10;3.07;;;14.30;99.90;;;;;;5072107;28;20302;-56
2022/06/04 03:28:15;;;;;;;4.43;2.53;;;14.20;99.90;;;;;;5071796;28;20287;-57
2022/06/04 03:30:42;;;;;;;3.57;2.70;;;14.20;99.90;;;;;;5073710;28;20292;-56
2022/06/04 03:33:09;;;;;;;3.83;2.73;;;14.20;99.90;;;;;;5078656;28;20286;-55
2022/06/04 03:35:36;;;;;;;3.20;2.87;;;14.30;99.90;;;;;;5077294;28;20197;-56
2022/06/04 03:38:03;;;;;;;3.10;2.20;;;14.30;99.90;;;;;;5073503;28;20289;-56
2022/06/04 03:40:30;;;;;;;5.33;2.60;;;14.20;99.90;;;;;;5072110;28;20257;-56
2022/06/04 03:42:56;;;;;;;5.53;2.77;;;14.20;99.90;;;;;;5070231;28;20264;-56
2022/06/04 03:45:26;;;;;;;3.57;2.73;;;14.10;99.90;;;;;;5070654;28;20716;-56
2022/06/04 03:47:55;;;;;;;5.27;3.17;;;14.10;99.90;;;;;;5076217;28;20304;-56
2022/06/04 03:50:22;;;;;;;6.77;2.90;;;14.10;99.90;;;;;;5080389;28;20191;-55
2022/06/04 03:52:49;;;;;;;3.70;2.57;;;14.10;99.90;;;;;;5074617;28;20511;-56
2022/06/04 03:55:18;;;;;;;6.30;3.40;;;14.10;99.90;;;;;;5078761;28;20364;-55
2022/06/04 03:57:50;;;;;;;3.10;2.70;;;14.00;99.90;;;;;;5075967;28;20343;-55
2022/06/04 04:00:22;;;;;;;2.80;2.47;;;14.00;99.90;;;;;;5072638;28;20238;-55
2022/06/04 04:02:52;;;;;;;3.77;2.80;;;14.10;99.90;;;;;;5071919;28;20204;-55
2022/06/04 04:05:25;;;;;;;5.07;2.60;;;14.10;99.90;;;;;;5075293;28;20641;-55
2022/06/04 04:07:54;;;;;;;5.23;3.00;;;14.10;99.90;;;;;;5075005;28;20739;-55
2022/06/04 04:10:21;;;;;;;4.63;2.80;;;14.20;99.90;;;;;;5067673;28;20207;-55
2022/06/04 04:12:48;;;;;;;6.33;2.70;;;14.10;99.90;;;;;;5069807;28;20734;-57
2022/06/04 04:15:16;;;;;;;6.40;3.50;;;14.10;99.90;;;;;;5076572;28;20190;-55
2022/06/04 04:17:43;;;;;;;4.33;3.20;;;14.10;99.90;;;;;;5071133;28;20203;-56
2022/06/04 04:20:15;;;;;;;5.33;3.07;;;14.20;99.90;;;;;;5069103;28;20282;-56
2022/06/04 04:22:43;;;;;;;4.00;3.00;;;14.20;99.90;;;;;;5070895;28;20251;-56
2022/06/04 04:25:11;;;;;;;3.90;2.87;;;14.10;99.90;;;;;;5075056;28;20228;-56
2022/06/04 04:27:38;;;;;;;4.43;3.30;;;14.20;99.90;;;;;;5067672;28;20219;-56
2022/06/04 04:30:08;;;;;;;4.20;2.60;;;14.40;99.90;;;;;;5073233;28;20540;-56
2022/06/04 04:32:35;;;;;;;4.87;2.87;;;14.30;99.90;;;;;;5074335;28;20695;-56
2022/06/04 04:35:04;;;;;;;6.23;2.97;;;14.20;99.90;;;;;;5075321;28;20638;-56
2022/06/04 04:37:31;;;;;;;5.47;3.17;;;14.20;99.90;;;;;;5072234;28;20219;-59
2022/06/04 04:39:58;;;;;;;4.90;3.03;;;14.20;99.90;;;;;;5075232;28;20208;-56
2022/06/04 04:42:25;;;;;;;4.37;2.77;;;14.20;99.90;;;;;;5066714;28;20580;-56
2022/06/04 04:44:52;;;;;;;4.70;3.00;;;14.30;99.90;;;;;;5071916;28;20653;-56
2022/06/04 04:47:18;;;;;;;6.27;3.27;;;14.20;99.90;;;;;;5074664;28;20350;-55
2022/06/04 04:49:45;;;;;;;4.83;2.93;;;14.20;99.90;;;;;;5073146;28;20237;-55
2022/06/04 04:52:13;;;;;;;4.67;3.47;;;14.10;99.90;;;;;;5071475;28;20202;-56
2022/06/04 04:54:40;;;;;;;5.63;3.13;;;13.90;99.90;;;;;;5072535;28;20312;-56
2022/06/04 04:57:07;;;;;;;8.13;3.60;;;14.00;99.90;;;;;;5074568;28;20209;-55
2022/06/04 04:59:34;;;;;;;5.40;3.20;;;14.10;99.90;;;;;;5069713;28;20270;-55
2022/06/04 05:02:01;;;;;;;4.90;3.33;;;14.00;99.90;;;;;;5069501;28;20263;-56
2022/06/04 05:04:28;;;;;;;9.27;3.70;;;14.20;99.90;;;;;;5071771;28;20202;-55
2022/06/04 05:06:55;;;;;;;6.07;3.90;;;14.30;99.90;;;;;;5073978;28;20218;-56
2022/06/04 05:09:21;;;;;;;6.27;3.30;;;14.10;99.90;;;;;;5069720;28;20241;-55
2022/06/04 05:11:49;;;;;;;5.70;4.40;;;14.30;99.90;;;;;;5066638;28;20232;-56
2022/06/04 05:14:17;;;;;;;5.57;3.60;;;14.30;99.90;;;;;;5069162;28;20284;-55
2022/06/04 05:16:44;;;;;;;4.00;3.37;;;14.10;99.90;;;;;;5069628;28;20540;-56
2022/06/04 05:19:11;;;;;;;4.73;3.77;;;14.10;99.90;;;;;;5073134;28;20200;-55
2022/06/04 05:21:47;;;;;;;8.77;3.77;;;14.10;99.90;;;;;;5069925;28;20242;-55
2022/06/04 05:24:22;;;;;;;8.20;3.90;;;14.00;99.90;;;;;;5068936;28;20216;-55
2022/06/04 05:26:50;;;;;;;6.90;4.20;;;14.10;99.90;;;;;;5073654;28;20676;-56
2022/06/04 05:29:17;;;;;;;12.03;3.90;;;14.20;99.90;;;;;;5074515;28;20646;-55
2022/06/04 05:31:45;;;;;;;6.40;4.37;;;14.30;99.90;;;;;;5074000;28;20215;-58
2022/06/04 05:34:13;;;;;;;6.47;4.57;;;14.30;99.90;;;;;;5071455;28;20199;-55
2022/06/04 05:36:41;;;;;;;4.73;3.57;;;14.40;99.90;;;;;;5073079;28;20237;-55
2022/06/04 05:39:08;;;;;;;6.63;4.30;;;14.50;99.90;;;;;;5074092;28;20210;-56
2022/06/04 05:41:36;;;;;;;5.80;4.30;;;14.40;99.90;;;;;;5074793;28;20294;-55
2022/06/04 05:44:04;;;;;;;7.70;4.20;;;14.40;99.90;;;;;;5073057;28;20206;-55
2022/06/04 05:46:30;;;;;;;5.27;4.07;;;14.40;99.90;;;;;;5073827;28;20223;-55
2022/06/04 05:48:59;;;;;;;8.83;4.30;;;14.40;99.90;;;;;;5076248;28;20201;-56
2022/06/04 05:51:29;;;;;;;7.37;5.00;;;14.40;99.90;;;;;;5072125;28;20244;-55
2022/06/04 05:53:57;;;;;;;8.07;4.10;;;14.60;99.90;;;;;;5075708;28;20258;-55
2022/06/04 05:56:30;;;;;;;6.30;4.50;;;14.60;99.90;;;;;;5073285;28;20291;-56
2022/06/04 05:59:00;;;;;;;7.17;4.40;;;14.50;99.90;;;;;;5073504;28;20779;-56
2022/06/04 06:01:31;;;;;;;7.77;4.20;;;14.50;99.90;;;;;;5067821;28;20285;-56
2022/06/04 06:03:58;;;;;;;5.93;4.20;;;14.50;99.90;;;;;;5070615;28;20721;-56
2022/06/04 06:06:28;;;;;;;6.47;4.47;;;14.70;99.90;;;;;;5072769;28;20215;-55
2022/06/04 06:09:00;;;;;;;5.07;4.17;;;14.70;99.90;;;;;;5070318;28;20208;-60
2022/06/04 06:11:28;;;;;;;7.60;4.60;;;14.60;99.90;;;;;;5071486;28;20304;-55
2022/06/04 06:13:55;;;;;;;7.57;4.87;;;14.50;99.90;;;;;;5070839;28;20192;-55
2022/06/04 06:16:25;;;;;;;11.73;4.73;;;14.50;99.90;;;;;;5072816;28;20221;-55
2022/06/04 06:18:52;;;;;;;5.83;4.47;;;14.70;99.90;;;;;;5078380;28;20230;-55
2022/06/04 06:21:24;;;;;;;10.13;4.47;;;14.80;99.90;;;;;;5073858;28;20221;-59
2022/06/04 06:23:51;;;;;;;7.70;4.70;;;14.80;99.90;;;;;;5073920;28;20758;-56
2022/06/04 06:26:26;;;;;;;9.73;4.50;;;14.70;99.90;;;;;;5070771;28;21130;-55
2022/06/04 06:28:54;;;;;;;8.67;4.23;;;14.70;99.90;;;;;;5068115;28;20198;-55
2022/06/04 06:31:24;;;;;;;5.33;4.80;;;14.80;99.90;;;;;;5072636;28;20761;-55
2022/06/04 06:33:51;;;;;;;9.30;4.80;;;14.90;99.90;;;;;;5071985;28;20584;-58
2022/06/04 06:36:20;;;;;;;8.23;4.60;;;15.00;99.90;;;;;;5075826;28;20954;-56
2022/06/04 06:38:47;;;;;;;7.30;4.97;;;14.90;99.90;;;;;;5071851;28;20250;-55
2022/06/04 06:41:17;;;;;;;7.30;5.20;;;14.90;99.90;;;;;;5071344;28;20192;-55
2022/06/04 06:43:49;;;;;;;8.23;5.00;;;14.80;99.90;;;;;;5071994;28;20421;-54
2022/06/04 06:46:30;;;;;;;6.93;5.03;;;15.00;99.90;;;;;;5077534;28;20201;-56
2022/06/04 06:49:07;;;;;;;9.43;4.93;;;14.90;99.90;;;;;;5072908;28;20202;-56
2022/06/04 06:51:38;;;;;;;7.97;5.40;;;15.10;99.90;;;;;;5072957;28;20238;-55
2022/06/04 06:54:05;;;;;;;6.47;5.03;;;15.10;99.90;;;;;;5063813;28;20293;-56
2022/06/04 06:56:35;;;;;;;7.30;5.10;;;15.20;99.90;;;;;;5074081;28;20221;-55
2022/06/04 06:59:03;;;;;;;8.83;4.97;;;15.10;99.90;;;;;;5062888;28;20658;-56
2022/06/04 07:01:31;;;;;;;7.70;4.40;;;15.10;99.90;;;;;;5070054;28;20233;-55
2022/06/04 07:03:58;;;;;;;8.10;4.67;;;15.30;99.90;;;;;;5071501;28;20210;-56
2022/06/04 07:06:40;;;;;;;7.53;4.43;;;15.30;99.90;;;;;;5068322;28;20283;-55
2022/06/04 07:09:14;;;;;;;7.07;5.03;;;15.40;99.90;;;;;;5070477;28;20320;-55
2022/06/04 07:11:41;;;;;;;8.10;5.27;;;15.50;99.90;;;;;;5063838;28;20233;-57
2022/06/04 07:14:09;;;;;;;8.50;4.87;;;15.50;99.90;;;;;;5062920;28;20933;-56
2022/06/04 07:16:36;;;;;;;7.00;4.53;;;15.50;99.90;;;;;;5071367;28;20550;-56
2022/06/04 07:19:04;;;;;;;5.93;4.50;;;15.60;99.90;;;;;;5073289;28;20206;-54
2022/06/04 07:21:32;;;;;;;6.03;3.93;;;15.40;99.90;;;;;;5075850;28;20302;-55
2022/06/04 07:23:59;;;;;;;7.87;4.57;;;15.50;99.90;;;;;;5072349;28;20211;-56
2022/06/04 07:26:26;;;;;;;7.17;4.37;;;15.50;99.90;;;;;;5067513;28;20242;-55
2022/06/04 07:28:53;;;;;;;9.17;4.40;;;15.40;99.90;;;;;;5068042;28;20278;-55
2022/06/04 07:31:20;;;;;;;8.00;5.07;;;15.40;99.90;;;;;;5071947;28;20225;-56
2022/06/04 07:33:49;;;;;;;5.17;4.50;;;15.50;99.90;;;;;;5068452;28;20333;-55
2022/06/04 07:36:26;;;;;;;7.53;4.77;;;15.60;99.90;;;;;;5071252;28;20549;-55
2022/06/04 07:38:54;;;;;;;5.60;4.27;;;15.60;99.90;;;;;;5073876;28;20607;-55
2022/06/04 07:41:25;;;;;;;5.20;4.10;;;15.60;99.90;;;;;;5073884;28;20700;-55
2022/06/04 07:43:53;;;;;;;5.57;4.43;;;15.50;99.90;;;;;;5072417;28;20284;-56
2022/06/04 07:46:21;;;;;;;5.83;4.37;;;15.40;99.90;;;;;;5078179;28;20199;-56
2022/06/04 07:48:49;;;;;;;8.03;4.50;;;15.70;99.90;;;;;;5069814;28;20234;-55
2022/06/04 07:51:17;;;;;;;7.27;5.30;;;15.60;99.90;;;;;;5074600;28;20284;-56
2022/06/04 07:53:43;;;;;;;5.77;4.77;;;15.50;99.90;;;;;;5074545;28;20256;-55
2022/06/04 07:56:13;;;;;;;6.33;4.23;;;15.80;99.90;;;;;;5074791;28;20217;-55
2022/06/04 07:58:42;;;;;;;6.47;4.60;;;15.90;99.90;;;;;;5073383;28;20197;-55
2022/06/04 08:01:14;;;;;;;9.33;5.27;;;16.00;99.90;;;;;;5079134;28;20265;-58
2022/06/04 08:03:43;;;;;;;8.53;4.60;;;16.00;99.90;;;;;;5074814;28;20252;-56
2022/06/04 08:06:11;;;;;;;8.20;4.87;;;16.10;99.90;;;;;;5066981;28;21079;-57
2022/06/04 08:08:39;;;;;;;6.20;4.33;;;16.20;99.90;;;;;;5063583;28;21113;-56
2022/06/04 08:14:19;;;;;;;5.97;4.57;;;16.30;99.90;;;;;;5040881;28;20303;-55
2022/06/04 08:16:51;;;;;;;8.70;4.63;;;16.10;99.90;;;;;;5065726;28;20720;-55
2022/06/04 08:19:20;;;;;;;6.87;4.70;;;16.10;99.90;;;;;;5069842;28;20204;-56
2022/06/04 08:21:47;;;;;;;7.10;4.80;;;16.30;99.90;;;;;;5066587;28;20665;-55
2022/06/04 08:24:14;;;;;;;6.87;4.10;;;16.30;99.90;;;;;;5067750;28;20293;-56
2022/06/04 08:26:43;;;;;;;8.03;4.70;;;16.50;99.90;;;;;;5068642;28;20298;-55
2022/06/04 08:29:10;;;;;;;8.47;4.47;;;16.60;99.90;;;;;;5069661;28;20560;-54
2022/06/04 08:31:37;;;;;;;10.53;5.00;;;16.60;99.90;;;;;;5072823;28;20553;-55
2022/06/04 08:34:05;;;;;;;9.10;5.27;;;16.70;99.90;;;;;;5068773;28;20360;-55
2022/06/04 08:36:32;;;;;;;11.07;4.43;;;16.70;99.90;;;;;;5082917;28;20235;-55
2022/06/04 08:39:01;;;;;;;6.63;4.77;;;16.70;99.90;;;;;;5066197;28;20210;-55
2022/06/04 08:41:46;;;;;;;5.80;4.83;;;16.70;99.90;;;;;;5068103;28;20221;-55
2022/06/04 08:44:20;;;;;;;6.60;4.47;;;16.80;99.90;;;;;;5070809;28;20506;-55
2022/06/04 08:46:49;;;;;;;8.30;5.27;;;17.00;99.90;;;;;;5072295;28;20195;-56
2022/06/04 08:49:29;;;;;;;10.20;5.30;;;17.00;99.90;;;;;;5071548;28;20683;-55
2022/06/04 08:51:59;;;;;;;10.40;5.20;;;16.90;99.90;;;;;;5074123;28;20209;-56
2022/06/04 08:57:35;;;;;;;14.10;4.97;;;17.50;99.90;;;;;;5072454;28;20199;-55
2022/06/04 09:00:17;;;;;;;7.87;5.07;;;17.60;99.90;;;;;;5068100;28;20262;-56
2022/06/04 09:03:04;;;;;;;10.13;5.37;;;17.60;99.90;;;;;;5067490;28;20260;-56
2022/06/04 09:05:34;;;;;;;7.47;5.17;;;17.50;99.90;;;;;;5072336;28;20615;-55
2022/06/04 09:08:05;;;;;;;7.07;5.00;;;17.70;99.90;;;;;;5071755;28;20248;-55
2022/06/04 09:10:48;;;;;;;6.43;5.20;;;17.80;99.90;;;;;;5064724;28;20512;-56
2022/06/04 09:13:35;;;;;;;5.33;4.53;;;17.80;99.90;;;;;;5074128;28;20210;-56
2022/06/04 09:16:16;;;;;;;6.17;4.53;;;17.70;99.90;;;;;;5071732;28;20735;-55
2022/06/04 09:18:49;;;;;;;8.17;5.27;;;18.00;99.90;;;;;;5073629;28;20667;-56
2022/06/04 09:21:16;;;;;;;8.20;5.70;;;18.30;99.90;;;;;;5064905;28;20202;-56
2022/06/04 09:23:47;;;;;;;8.63;5.63;;;18.60;99.90;;;;;;5066829;28;20214;-56
2022/06/04 09:26:14;;;;;;;6.80;5.27;;;18.70;99.90;;;;;;5066674;28;20199;-56
2022/06/04 09:29:18;;;;;;;8.10;5.63;;;18.50;99.90;;;;;;5070289;28;20293;-55
2022/06/04 09:32:01;;;;;;;6.43;5.30;;;18.40;99.90;;;;;;5072398;28;20274;-55
2022/06/04 09:34:36;;;;;;;6.20;5.50;;;18.20;99.90;;;;;;5069372;28;20200;-55
2022/06/04 09:37:09;;;;;;;11.07;6.03;;;18.20;99.90;;;;;;5070951;28;20198;-56
2022/06/04 09:39:39;;;;;;;5.87;4.70;;;18.30;99.90;;;;;;5061595;28;20222;-56
2022/06/04 09:42:13;;;;;;;8.33;5.93;;;18.80;99.90;;;;;;5061664;28;20280;-56
2022/06/04 09:44:58;;;;;;;7.57;5.37;;;18.70;99.90;;;;;;5063067;28;20225;-55
2022/06/04 09:47:35;;;;;;;7.73;5.43;;;18.80;99.90;;;;;;5062354;28;20212;-56
2022/06/04 09:50:27;;;;;;;11.63;5.30;;;18.70;1.00;;;;;;5064778;28;20192;-56
2022/06/04 09:53:08;;;;;;;7.67;5.43;;;19.00;1.00;;;;;;5075222;28;20713;-56
2022/06/04 09:55:37;;;;;;;7.73;5.47;;;19.20;1.00;;;;;;5065112;28;20199;-56
2022/06/04 09:58:16;;;;;;;8.80;5.77;;;18.80;1.00;;;;;;5067578;28;20559;-54
2022/06/04 10:01:01;;;;;;;10.20;6.63;;;18.60;1.00;;;;;;5063526;28;20518;-55
2022/06/04 10:03:31;;;;;;;10.33;6.43;;;18.80;1.00;;;;;;5067087;28;20237;-55
2022/06/04 10:06:02;;;;;;;9.23;5.83;;;19.00;1.00;;;;;;5064202;28;20402;-55
2022/06/04 10:09:54;;;;;;;8.00;6.20;;;19.00;1.00;;;;;;5064658;28;20245;-55
2022/06/04 10:11:20;;;;;;;8.17;5.87;;;19.00;1.00;;;;;;5061130;28;20207;-56
2022/06/04 10:13:51;;;;;;;8.43;6.00;;;19.10;1.00;;;;;;5060156;28;20204;-56
2022/06/04 10:16:36;;;;;;;7.80;6.40;;;19.20;99.90;;;;;;5060612;28;20660;-55
2022/06/04 10:19:13;;;;;;;8.87;6.20;;;19.40;1.00;;;;;;5069858;28;20216;-55
2022/06/04 10:21:43;;;;;;;8.10;6.20;;;19.50;1.00;;;;;;5071606;28;20209;-57
2022/06/04 10:24:25;;;;;;;72.95;12.32;;;19.70;99.90;;;;;;5059740;28;20452;-54
2022/06/04 10:27:26;;;;;;;11.83;6.20;;;20.00;99.90;;;;;;5065505;28;20205;-53
2022/06/04 10:30:37;;;;;;;9.65;7.53;;;20.20;99.90;;;;;;5061979;28;20452;-53
2022/06/04 10:33:17;;;;;;;7.47;5.63;;;20.10;99.90;;;;;;5065007;28;20612;-51
2022/06/04 10:36:21;;;;;;;7.40;6.38;;;20.50;1.00;;;;;;5064199;28;20444;-52
2022/06/04 10:42:35;;;;;;;10.57;7.18;;;22.00;1.00;;;;;;5085428;27;21011;-54
2022/06/04 10:46:26;;;;;;;8.38;7.57;;;21.20;1.00;;;;;;5079376;27;1275162;-54
2022/06/04 10:53:58;;;;;;;7.70;6.33;;;22.10;1.00;;;;;;5092447;28;20198;-52
2022/06/04 10:56:42;;;;;;;8.60;7.33;;;21.50;1.00;;;;;;5091342;28;20206;-52
2022/06/04 10:59:38;;;;;;;8.87;7.10;;;20.80;99.90;;;;;;5086346;28;20251;-54
2022/06/04 11:02:28;;;;;;;9.43;6.23;;;20.60;1.00;;;;;;5091986;28;20248;-54
2022/06/04 11:05:35;;;;;;;8.77;6.40;;;20.50;1.00;;;;;;5092517;28;20205;-52
2022/06/04 11:08:26;;;;;;;9.47;6.00;;;20.70;1.00;;;;;;5039927;28;20207;-53
2022/06/04 11:11:04;;;;;;;7.67;6.20;;;20.60;1.00;;;;;;5089880;28;20203;-52
2022/06/04 11:13:50;;;;;;;8.17;6.60;;;20.60;1.00;;;;;;5090309;28;20202;-53
2022/06/04 11:16:25;;;;;;;9.03;6.27;;;20.60;1.00;;;;;;5091974;28;20202;-53
2022/06/04 11:19:10;;;;;;;7.93;6.60;;;20.70;1.00;;;;;;5093022;28;20648;-53
2022/06/04 11:21:43;;;;;;;10.93;5.73;;;20.80;1.00;;;;;;5087349;28;20284;-53
2022/06/04 11:24:20;;;;;;;8.33;6.50;;;20.90;1.00;;;;;;5086986;28;20256;-54
2022/06/04 11:26:57;;;;;;;9.73;6.80;;;21.00;1.00;;;;;;5087714;28;20662;-53
2022/06/04 11:29:24;;;;;;;7.97;7.17;;;21.00;1.00;;;;;;5083450;28;20313;-53
2022/06/04 11:31:58;;;;;;;8.23;6.87;;;21.00;1.00;;;;;;5084608;28;20197;-52
2022/06/04 11:34:41;;;;;;;9.20;6.67;;;20.70;1.00;;;;;;5090862;28;20194;-53
2022/06/04 11:37:11;;;;;;;9.83;6.37;;;20.50;1.00;;;;;;5087811;28;20249;-54
2022/06/04 11:40:01;;;;;;;8.27;6.40;;;20.70;1.00;;;;;;5087744;28;20199;-52
2022/06/04 11:42:45;;;;;;;9.97;6.20;;;20.70;99.90;;;;;;5087296;28;20937;-51
2022/06/04 11:45:12;;;;;;;7.43;6.70;;;20.80;1.00;;;;;;5085370;28;20287;-53
2022/06/04 11:47:46;;;;;;;8.83;6.63;;;20.90;1.00;;;;;;5090855;28;20596;-50
2022/06/04 11:50:32;;;;;;;7.13;5.97;;;21.00;1.00;;;;;;5094195;28;20668;-50
2022/06/04 11:53:17;;;;;;;7.23;5.70;;;21.00;1.00;;;;;;5091715;28;20706;-51
2022/06/04 11:55:53;;;;;;;8.70;6.03;;;21.10;1.00;;;;;;5086890;28;20335;-53
2022/06/04 11:58:38;;;;;;;7.47;5.87;;;21.20;1.00;;;;;;5085490;28;20198;-52
2022/06/04 12:01:11;;;;;;;9.27;6.33;;;21.50;1.00;;;;;;5071462;28;21797;-53
2022/06/04 12:03:52;;;;;;;8.27;6.40;;;21.90;1.00;;;;;;5069875;28;20468;-55
2022/06/04 12:06:43;;;;;;;8.97;6.13;;;22.80;1.00;;;;;;5071830;28;20206;-55
2022/06/04 12:09:48;;;;;;;8.97;4.83;;;24.20;99.90;;;;;;5075989;28;20309;-55
2022/06/04 12:12:21;;;;;;;8.23;5.07;;;24.90;1.00;;;;;;5075960;28;20257;-54
2022/06/04 12:14:48;;;;;;;6.07;4.77;;;24.10;1.00;;;;;;5069326;28;20282;-54
2022/06/04 12:17:20;;;;;;;7.03;5.17;;;24.70;1.00;;;;;;5069013;28;20282;-55
2022/06/04 12:25:42;;;;;;;8.07;5.60;;;24.00;1.00;;;;;;5073545;28;20209;-54
2022/06/04 12:28:40;;;;;;;6.87;5.43;;;24.00;1.00;;;;;;5068958;28;20231;-54
2022/06/04 12:31:07;;;;;;;5.93;4.43;;;24.00;1.00;;;;;;5066437;28;20268;-55
2022/06/04 12:33:49;;;;;;;7.57;4.13;;;25.70;1.00;;;;;;5070160;28;20681;-54
2022/06/04 12:36:47;;;;;;;7.83;4.23;;;25.90;1.00;;;;;;5070142;28;20280;-54
2022/06/04 12:39:39;;;;;;;5.27;4.53;;;26.20;1.00;;;;;;5068475;28;20206;-54
2022/06/04 12:42:22;;;;;;;6.67;4.43;;;26.20;1.00;;;;;;5069693;28;20325;-55
2022/06/04 12:45:06;;;;;;;5.37;4.87;;;25.10;1.00;;;;;;5068633;28;20207;-56
2022/06/04 12:47:36;;;;;;;5.87;4.20;;;25.50;1.00;;;;;;5071847;28;20271;-54
2022/06/04 12:50:18;;;;;;;6.63;5.17;;;25.60;1.00;;;;;;5055125;28;20336;-55
2022/06/04 12:52:51;;;;;;;6.17;5.27;;;25.50;1.00;;;;;;5076071;28;20203;-55
2022/06/04 12:55:37;;;;;;;5.30;4.33;;;25.00;1.00;;;;;;5074214;28;21542;-54
2022/06/04 12:58:26;;;;;;;9.93;4.77;;;25.40;1.00;;;;;;5066688;28;20231;-54
2022/06/04 13:01:23;;;;;;;5.93;5.33;;;25.80;1.00;;;;;;5069141;28;20213;-57
2022/06/04 13:04:01;;;;;;;7.07;5.93;;;25.50;1.00;;;;;;5062097;28;20233;-56
2022/06/04 13:06:43;;;;;;;6.73;4.20;;;25.40;1.00;;;;;;5069593;28;20255;-55
2022/06/04 13:09:44;;;;;;;6.50;5.10;;;25.70;1.00;;;;;;5068867;28;20210;-54
2022/06/04 13:12:40;;;;;;;7.13;5.17;;;25.50;1.00;;;;;;5071120;28;20718;-55
2022/06/04 13:15:52;;;;;;;6.13;5.33;;;25.40;1.00;;;;;;5055907;28;20203;-55
2022/06/04 13:18:30;;;;;;;6.43;5.13;;;25.30;1.00;;;;;;5061100;28;20231;-55
2022/06/04 13:21:03;;;;;;;6.43;4.53;;;24.90;1.00;;;;;;5070722;28;20645;-55
2022/06/04 13:23:46;;;;;;;5.37;4.70;;;25.30;1.00;;;;;;5077586;28;20244;-55
2022/06/04 13:26:36;;;;;;;8.57;4.70;;;25.20;1.00;;;;;;5065131;28;20934;-55
2022/06/04 13:29:19;;;;;;;5.17;4.50;;;25.00;1.00;;;;;;5070193;28;20210;-55
2022/06/04 13:31:56;;;;;;;5.07;4.40;;;25.20;1.00;;;;;;5072288;28;20670;-55
2022/06/04 13:34:26;;;;;;;7.83;3.87;;;25.00;1.00;;;;;;5070810;28;20195;-54
2022/06/04 13:37:02;;;;;;;6.33;3.73;;;25.80;1.00;;;;;;5072036;28;20248;-54
2022/06/04 13:39:31;;;;;;;4.83;4.10;;;25.80;1.00;;;;;;5079748;28;20715;-54
2022/06/04 13:42:01;;;;;;;6.87;4.53;;;25.70;1.00;;;;;;5071214;28;20653;-54
2022/06/04 13:44:44;;;;;;;5.47;3.77;;;25.20;1.00;;;;;;5075289;28;20201;-55
2022/06/04 13:47:23;;;;;;;6.27;4.67;;;25.60;1.00;;;;;;5069973;28;20312;-55
2022/06/04 13:50:10;;;;;;;7.53;4.33;;;25.40;1.00;;;;;;5068859;28;20258;-54
2022/06/04 13:52:49;;;;;;;5.33;4.30;;;24.80;1.00;;;;;;5070433;28;20226;-54